createdAt,value
2022-12-03T00:01:14.420Z,87.03
2022-12-03T00:03:41.137Z,87.03
2022-12-03T00:06:08.006Z,86.79
2022-12-03T00:08:34.616Z,86.91
2022-12-03T00:11:01.261Z,88.04
2022-12-03T00:13:27.982Z,87.71
2022-12-03T00:15:54.639Z,86.62
2022-12-03T00:18:21.401Z,86.70
2022-12-03T00:20:48.043Z,87.14
2022-12-03T00:23:14.705Z,87.23
2022-12-03T00:25:41.422Z,86.55
2022-12-03T00:28:09.330Z,87.01
2022-12-03T00:30:36.136Z,86.83
2022-12-03T00:33:02.820Z,87.01
2022-12-03T00:35:29.469Z,86.86
2022-12-03T00:37:56.182Z,86.89
2022-12-03T00:40:22.821Z,86.34
2022-12-03T00:42:49.516Z,86.34
2022-12-03T00:45:16.194Z,85.89
2022-12-03T00:47:42.757Z,85.94
2022-12-03T00:50:10.290Z,86.23
2022-12-03T00:52:36.976Z,86.73
2022-12-03T00:55:03.921Z,87.90
2022-12-03T00:57:30.587Z,88.01
2022-12-03T00:59:57.204Z,87.94
2022-12-03T01:02:24.038Z,87.71
2022-12-03T01:04:51.013Z,87.14
2022-12-03T01:07:18.022Z,86.69
2022-12-03T01:09:44.602Z,86.82
2022-12-03T01:12:12.100Z,86.36
2022-12-03T01:14:38.823Z,85.67
2022-12-03T01:17:05.558Z,85.63
2022-12-03T01:19:33.950Z,85.96
2022-12-03T01:22:00.536Z,86.74
2022-12-03T01:24:27.268Z,86.19
2022-12-03T01:26:55.817Z,86.85
2022-12-03T01:29:22.523Z,87.90
2022-12-03T01:32:07.495Z,88.27
2022-12-03T01:34:34.208Z,88.12
2022-12-03T01:37:00.896Z,88.01
2022-12-03T01:39:27.581Z,87.45
2022-12-03T01:41:54.276Z,87.15
2022-12-03T01:44:28.537Z,85.85
2022-12-03T01:46:56.385Z,87.56
2022-12-03T01:49:33.728Z,87.53
2022-12-03T01:52:00.406Z,87.19
2022-12-03T01:54:30.269Z,86.65
2022-12-03T01:56:56.913Z,86.17
2022-12-03T01:59:26.065Z,86.07
2022-12-03T02:01:52.721Z,86.64
2022-12-03T02:04:19.443Z,87.07
2022-12-03T02:06:46.193Z,87.32
2022-12-03T02:09:13.302Z,87.82
2022-12-03T02:11:44.681Z,88.62
2022-12-03T02:14:13.810Z,89.10
2022-12-03T02:16:41.064Z,88.54
2022-12-03T02:19:13.096Z,88.00
2022-12-03T02:21:48.588Z,88.66
2022-12-03T02:24:37.530Z,88.51
2022-12-03T02:27:04.242Z,88.61
2022-12-03T02:29:30.981Z,88.70
2022-12-03T02:31:57.596Z,90.11
2022-12-03T02:34:37.957Z,90.15
2022-12-03T02:37:04.897Z,89.66
2022-12-03T02:39:32.100Z,88.59
2022-12-03T02:42:17.211Z,86.95
2022-12-03T02:44:43.834Z,87.15
2022-12-03T02:47:10.523Z,87.19
2022-12-03T02:49:37.231Z,88.17
2022-12-03T02:52:03.914Z,87.53
2022-12-03T02:54:30.556Z,87.52
2022-12-03T02:56:57.234Z,86.80
2022-12-03T02:59:23.901Z,86.46
2022-12-03T03:01:50.526Z,87.52
2022-12-03T03:04:17.353Z,87.60
2022-12-03T03:06:43.957Z,87.73
2022-12-03T03:09:10.583Z,86.56
2022-12-03T03:11:37.276Z,86.30
2022-12-03T03:14:03.846Z,85.29
2022-12-03T03:16:30.686Z,85.14
2022-12-03T03:18:57.370Z,85.57
2022-12-03T03:21:24.072Z,85.59
2022-12-03T03:23:50.658Z,85.99
2022-12-03T03:26:17.357Z,86.10
2022-12-03T03:28:46.275Z,86.29
2022-12-03T03:31:14.171Z,85.94
2022-12-03T03:33:41.233Z,86.16
2022-12-03T03:36:08.156Z,85.93
2022-12-03T03:38:34.920Z,85.84
2022-12-03T03:41:02.165Z,85.91
2022-12-03T03:43:28.826Z,85.24
2022-12-03T03:45:55.519Z,85.56
2022-12-03T03:48:22.344Z,85.23
2022-12-03T03:50:49.568Z,84.89
2022-12-03T03:53:16.309Z,85.82
2022-12-03T03:55:42.914Z,86.22
2022-12-03T03:58:09.610Z,87.48
2022-12-03T04:00:36.609Z,87.68
2022-12-03T04:03:06.380Z,86.43
2022-12-03T04:05:33.170Z,85.50
2022-12-03T04:07:59.966Z,87.05
2022-12-03T04:10:45.141Z,87.72
2022-12-03T04:13:11.765Z,87.67
2022-12-03T04:15:38.462Z,87.59
2022-12-03T04:18:23.938Z,87.13
2022-12-03T04:20:50.641Z,87.28
2022-12-03T04:23:17.311Z,86.54
2022-12-03T04:26:19.425Z,85.78
2022-12-03T04:28:51.933Z,85.17
2022-12-03T04:31:37.326Z,85.55
2022-12-03T04:34:22.601Z,87.32
2022-12-03T04:36:49.214Z,88.07
2022-12-03T04:39:15.887Z,90.16
2022-12-03T04:41:42.574Z,91.39
2022-12-03T04:44:27.978Z,92.06
2022-12-03T04:46:54.664Z,91.08
2022-12-03T04:49:21.776Z,91.38
2022-12-03T04:51:48.432Z,90.49
2022-12-03T04:54:15.140Z,90.77
2022-12-03T04:56:41.798Z,90.29
2022-12-03T04:59:14.180Z,89.49
2022-12-03T05:01:42.620Z,90.86
2022-12-03T05:04:09.290Z,91.06
2022-12-03T05:06:35.949Z,92.30
2022-12-03T05:09:02.659Z,91.27
2022-12-03T05:11:29.321Z,90.69
2022-12-03T05:13:55.994Z,91.50
2022-12-03T05:16:22.731Z,92.65
2022-12-03T05:18:49.387Z,92.74
2022-12-03T05:21:16.030Z,91.63
2022-12-03T05:23:42.854Z,91.17
2022-12-03T05:26:09.801Z,90.85
2022-12-03T05:28:36.577Z,90.89
2022-12-03T05:31:03.319Z,91.38
2022-12-03T05:33:30.059Z,91.98
2022-12-03T05:35:56.678Z,91.65
2022-12-03T05:38:23.328Z,91.09
2022-12-03T05:40:49.917Z,90.64
2022-12-03T05:43:16.606Z,91.05
2022-12-03T05:45:43.573Z,92.11
2022-12-03T05:48:12.252Z,93.13
2022-12-03T05:50:39.851Z,93.03
2022-12-03T05:53:06.551Z,92.66
2022-12-03T05:55:33.225Z,92.40
2022-12-03T05:57:59.786Z,91.13
2022-12-03T06:00:28.360Z,90.39
2022-12-03T06:02:55.131Z,91.30
2022-12-03T06:05:22.164Z,93.08
2022-12-03T06:07:49.751Z,93.06
2022-12-03T06:10:20.863Z,92.05
2022-12-03T06:12:47.515Z,91.28
2022-12-03T06:15:15.220Z,91.46
2022-12-03T06:17:41.936Z,90.81
2022-12-03T06:20:09.036Z,91.79
2022-12-03T06:22:35.776Z,91.93
2022-12-03T06:25:06.800Z,90.47
2022-12-03T06:27:34.223Z,90.79
2022-12-03T06:30:00.805Z,91.85
2022-12-03T06:32:27.496Z,91.73
2022-12-03T06:34:54.377Z,90.77
2022-12-03T06:37:21.177Z,90.70
2022-12-03T06:39:47.744Z,90.83
2022-12-03T06:42:14.462Z,90.32
2022-12-03T06:44:41.198Z,90.74
2022-12-03T06:47:07.806Z,90.55
2022-12-03T06:49:34.748Z,90.04
2022-12-03T06:52:01.348Z,90.70
2022-12-03T06:54:28.077Z,91.20
2022-12-03T06:56:54.745Z,91.23
2022-12-03T06:59:21.462Z,90.86
2022-12-03T07:01:48.162Z,91.23
2022-12-03T07:04:14.876Z,91.83
2022-12-03T07:06:41.496Z,91.38
2022-12-03T07:09:08.223Z,91.93
2022-12-03T07:11:40.554Z,91.35
2022-12-03T07:14:08.069Z,91.33
2022-12-03T07:16:35.684Z,91.60
2022-12-03T07:19:03.146Z,91.62
2022-12-03T07:21:29.886Z,92.59
2022-12-03T07:23:56.752Z,92.62
2022-12-03T07:26:23.442Z,91.88
2022-12-03T07:28:50.077Z,92.66
2022-12-03T07:31:16.755Z,92.24
2022-12-03T07:33:43.426Z,91.84
2022-12-03T07:36:10.324Z,92.31
2022-12-03T07:38:37.116Z,92.53
2022-12-03T07:41:03.788Z,92.86
2022-12-03T07:43:30.391Z,92.62
2022-12-03T07:45:57.030Z,91.99
2022-12-03T07:48:23.749Z,91.68
2022-12-03T07:50:50.446Z,91.81
2022-12-03T07:53:17.178Z,90.95
2022-12-03T07:55:43.770Z,92.11
2022-12-03T07:58:10.454Z,93.07
2022-12-03T08:00:37.146Z,92.08
2022-12-03T08:03:03.761Z,92.21
2022-12-03T08:05:30.474Z,92.31
2022-12-03T08:07:57.203Z,92.43
2022-12-03T08:10:24.271Z,92.47
2022-12-03T08:12:51.017Z,91.68
2022-12-03T08:15:24.017Z,92.32
2022-12-03T08:17:56.690Z,91.28
2022-12-03T08:20:25.054Z,91.37
2022-12-03T08:22:52.606Z,91.49
2022-12-03T08:25:27.408Z,92.43
2022-12-03T08:28:15.725Z,91.75
2022-12-03T08:30:43.190Z,91.31
2022-12-03T08:33:18.648Z,91.00
2022-12-03T08:35:49.725Z,90.28
2022-12-03T08:38:16.674Z,91.26
2022-12-03T08:40:43.998Z,91.50
2022-12-03T08:43:26.186Z,90.99
2022-12-03T08:45:56.593Z,91.59
2022-12-03T08:48:36.821Z,91.95
2022-12-03T08:51:13.373Z,92.15
2022-12-03T08:53:50.254Z,91.79
2022-12-03T08:56:23.641Z,91.27
2022-12-03T08:58:54.022Z,91.49
2022-12-03T09:01:39.262Z,91.61
2022-12-03T09:04:34.768Z,90.99
2022-12-03T09:07:01.480Z,90.30
2022-12-03T09:09:28.157Z,89.67
2022-12-03T09:11:54.853Z,90.88
2022-12-03T09:14:22.701Z,91.79
2022-12-03T09:16:55.683Z,91.24
2022-12-03T09:19:26.576Z,91.08
2022-12-03T09:21:53.877Z,90.92
2022-12-03T09:24:20.703Z,91.13
2022-12-03T09:26:47.415Z,90.83
2022-12-03T09:29:14.311Z,90.67
2022-12-03T09:31:41.215Z,89.73
2022-12-03T09:34:07.917Z,88.44
2022-12-03T09:36:34.696Z,88.52
2022-12-03T09:39:01.352Z,87.49
2022-12-03T09:41:28.101Z,87.46
2022-12-03T09:44:17.214Z,87.04
2022-12-03T09:46:41.490Z,86.46
2022-12-03T09:49:15.294Z,86.04
2022-12-03T09:51:42.606Z,83.69
2022-12-03T09:54:10.305Z,84.77
2022-12-03T09:56:37.652Z,84.50
2022-12-03T09:59:13.507Z,85.10
2022-12-03T10:01:40.323Z,84.51
2022-12-03T10:04:07.168Z,85.07
2022-12-03T10:06:33.925Z,83.92
2022-12-03T10:09:00.628Z,83.10
2022-12-03T10:11:27.470Z,83.92
2022-12-03T10:13:54.154Z,82.89
2022-12-03T10:16:21.161Z,82.64
2022-12-03T10:18:52.510Z,83.62
2022-12-03T10:21:19.202Z,83.75
2022-12-03T10:23:48.460Z,83.48
2022-12-03T10:26:17.443Z,82.76
2022-12-03T10:28:46.856Z,83.92
2022-12-03T10:31:14.006Z,82.81
2022-12-03T10:33:44.688Z,83.47
2022-12-03T10:36:18.949Z,81.40
2022-12-03T10:38:45.766Z,82.05
2022-12-03T10:41:27.572Z,83.10
2022-12-03T10:43:54.203Z,82.89
2022-12-03T10:46:21.698Z,83.96
2022-12-03T10:49:07.628Z,83.59
2022-12-03T10:51:34.297Z,84.45
2022-12-03T10:54:01.428Z,83.81
2022-12-03T10:56:28.042Z,84.01
2022-12-03T10:58:54.726Z,82.47
2022-12-03T11:01:22.508Z,82.48
2022-12-03T11:03:49.299Z,82.84
2022-12-03T11:06:17.934Z,82.57
2022-12-03T11:08:46.810Z,83.66
2022-12-03T11:11:20.489Z,83.56
2022-12-03T11:13:49.554Z,84.33
2022-12-03T11:16:42.034Z,82.14
2022-12-03T11:19:17.517Z,82.83
2022-12-03T11:22:05.756Z,82.63
2022-12-03T11:24:36.171Z,81.68
2022-12-03T11:27:02.808Z,81.14
2022-12-03T11:29:52.878Z,81.21
2022-12-03T11:32:40.414Z,81.24
2022-12-03T11:35:16.672Z,81.33
2022-12-03T11:37:43.245Z,81.07
2022-12-03T11:40:19.073Z,81.44
2022-12-03T11:42:46.841Z,80.08
2022-12-03T11:45:39.442Z,80.54
2022-12-03T11:48:14.058Z,81.13
2022-12-03T11:50:51.214Z,81.59
2022-12-03T11:53:26.020Z,80.56
2022-12-03T11:56:06.132Z,80.34
2022-12-03T11:58:33.148Z,80.20
2022-12-03T12:01:01.408Z,81.21
2022-12-03T12:03:33.350Z,81.56
2022-12-03T12:06:07.363Z,81.04
2022-12-03T12:08:35.291Z,80.09
2022-12-03T12:11:02.240Z,81.32
2022-12-03T12:13:28.800Z,81.96
2022-12-03T12:15:55.564Z,80.76
2022-12-03T12:18:52.417Z,81.50
2022-12-03T12:21:50.073Z,81.29
2022-12-03T12:24:43.220Z,81.61
2022-12-03T12:27:11.926Z,81.27
2022-12-03T12:29:39.547Z,81.70
2022-12-03T12:32:09.085Z,81.40
2022-12-03T12:34:49.070Z,81.27
2022-12-03T12:37:21.291Z,80.85
2022-12-03T12:39:48.262Z,80.81
2022-12-03T12:42:27.480Z,81.58
2022-12-03T12:44:54.947Z,81.96
2022-12-03T12:47:21.735Z,81.88
2022-12-03T12:49:51.906Z,81.86
2022-12-03T12:52:18.803Z,81.46
2022-12-03T12:54:45.416Z,82.04
2022-12-03T12:57:13.326Z,81.26
2022-12-03T12:59:40.060Z,81.83
2022-12-03T13:02:26.591Z,80.68
2022-12-03T13:04:53.279Z,81.00
2022-12-03T13:07:19.934Z,81.62
2022-12-03T13:09:46.563Z,81.24
2022-12-03T13:12:19.843Z,82.19
2022-12-03T13:14:46.541Z,81.79
2022-12-03T13:17:15.540Z,81.83
2022-12-03T13:19:48.314Z,81.95
2022-12-03T13:22:21.647Z,81.31
2022-12-03T13:24:48.781Z,81.75
2022-12-03T13:27:18.567Z,81.41
2022-12-03T13:29:54.862Z,81.51
2022-12-03T13:32:34.430Z,81.24
2022-12-03T13:35:08.015Z,81.85
2022-12-03T13:37:34.674Z,81.42
2022-12-03T13:40:12.385Z,81.19
2022-12-03T13:42:39.316Z,82.06
2022-12-03T13:45:14.943Z,81.72
2022-12-03T13:47:42.497Z,80.57
2022-12-03T13:50:30.150Z,81.51
2022-12-03T13:52:56.959Z,81.18
2022-12-03T13:55:28.432Z,80.83
2022-12-03T13:57:55.097Z,81.32
2022-12-03T14:00:21.929Z,80.78
2022-12-03T14:02:48.769Z,81.54
2022-12-03T14:05:15.648Z,82.23
2022-12-03T14:07:42.666Z,81.29
2022-12-03T14:10:09.846Z,82.12
2022-12-03T14:12:37.098Z,81.91
2022-12-03T14:15:04.793Z,81.74
2022-12-03T14:17:31.598Z,82.03
2022-12-03T14:20:01.037Z,81.62
2022-12-03T14:22:27.990Z,81.99
2022-12-03T14:24:54.739Z,82.32
2022-12-03T14:27:21.525Z,81.94
2022-12-03T14:29:48.101Z,82.11
2022-12-03T14:32:14.885Z,82.27
2022-12-03T14:34:41.694Z,82.86
2022-12-03T14:37:08.301Z,82.86
2022-12-03T14:39:35.052Z,82.85
2022-12-03T14:42:13.896Z,83.01
2022-12-03T14:44:45.605Z,82.98
2022-12-03T14:47:12.429Z,82.37
2022-12-03T14:49:39.069Z,82.67
2022-12-03T14:52:08.578Z,82.55
2022-12-03T14:54:39.216Z,83.05
2022-12-03T14:57:05.928Z,83.15
2022-12-03T14:59:32.713Z,82.64
2022-12-03T15:01:59.454Z,82.92
2022-12-03T15:04:26.276Z,82.84
2022-12-03T15:06:52.949Z,83.07
2022-12-03T15:09:20.449Z,82.01
2022-12-03T15:11:47.133Z,82.90
2022-12-03T15:14:13.896Z,82.42
2022-12-03T15:16:40.768Z,82.45
2022-12-03T15:19:07.544Z,82.39
2022-12-03T15:21:35.038Z,82.63
2022-12-03T15:24:02.327Z,82.49
2022-12-03T15:26:29.005Z,82.63
2022-12-03T15:28:55.776Z,83.31
2022-12-03T15:31:22.446Z,83.00
2022-12-03T15:33:49.141Z,83.11
2022-12-03T15:36:15.822Z,83.31
2022-12-03T15:38:42.449Z,82.22
2022-12-03T15:41:21.530Z,82.93
2022-12-03T15:43:48.758Z,83.47
2022-12-03T15:46:15.541Z,83.18
2022-12-03T15:48:42.474Z,82.19
2022-12-03T15:51:09.197Z,82.60
2022-12-03T15:53:35.912Z,83.45
2022-12-03T15:56:02.629Z,83.91
2022-12-03T15:58:29.254Z,84.48
2022-12-03T16:00:55.975Z,84.20
2022-12-03T16:03:22.806Z,84.43
2022-12-03T16:05:49.419Z,84.91
2022-12-03T16:08:16.267Z,84.19
2022-12-03T16:10:42.938Z,84.15
2022-12-03T16:13:09.583Z,84.62
2022-12-03T16:15:36.373Z,84.56
2022-12-03T16:18:03.051Z,83.88
2022-12-03T16:20:29.734Z,83.64
2022-12-03T16:22:56.400Z,83.98
2022-12-03T16:25:23.078Z,84.05
2022-12-03T16:27:49.782Z,83.80
2022-12-03T16:30:16.707Z,84.23
2022-12-03T16:32:43.349Z,84.51
2022-12-03T16:35:10.032Z,84.15
2022-12-03T16:37:36.757Z,84.13
2022-12-03T16:40:03.794Z,84.17
2022-12-03T16:42:30.494Z,84.53
2022-12-03T16:45:03.336Z,84.17
2022-12-03T16:47:33.775Z,83.10
2022-12-03T16:50:01.809Z,83.06
2022-12-03T16:52:28.548Z,82.80
2022-12-03T16:54:55.393Z,82.30
2022-12-03T16:57:22.053Z,83.01
2022-12-03T16:59:48.682Z,83.44
2022-12-03T17:02:15.573Z,83.30
2022-12-03T17:04:42.278Z,83.13
2022-12-03T17:07:08.953Z,82.67
2022-12-03T17:09:35.638Z,82.69
2022-12-03T17:12:02.280Z,83.70
2022-12-03T17:14:33.185Z,83.68
2022-12-03T17:17:00.259Z,83.87
2022-12-03T17:19:26.954Z,83.96
2022-12-03T17:21:54.244Z,83.54
2022-12-03T17:24:21.575Z,84.42
2022-12-03T17:26:48.351Z,84.75
2022-12-03T17:29:15.114Z,84.45
2022-12-03T17:31:42.781Z,85.12
2022-12-03T17:34:09.965Z,84.86
2022-12-03T17:36:36.566Z,85.12
2022-12-03T17:39:03.334Z,85.39
2022-12-03T17:41:29.992Z,85.12
2022-12-03T17:43:56.640Z,85.46
2022-12-03T17:46:23.460Z,85.26
2022-12-03T17:48:50.183Z,84.17
2022-12-03T17:51:16.934Z,84.27
2022-12-03T17:53:43.591Z,84.76
2022-12-03T17:56:10.215Z,85.35
2022-12-03T17:58:36.833Z,84.43
2022-12-03T18:01:03.972Z,83.80
2022-12-03T18:03:30.990Z,84.11
2022-12-03T18:05:57.630Z,84.40
2022-12-03T18:08:24.391Z,84.11
2022-12-03T18:10:51.053Z,84.45
2022-12-03T18:13:17.744Z,84.23
2022-12-03T18:15:44.420Z,84.07
2022-12-03T18:18:11.298Z,82.79
2022-12-03T18:20:38.072Z,82.64
2022-12-03T18:23:04.785Z,82.46
2022-12-03T18:25:31.586Z,83.31
2022-12-03T18:27:58.215Z,83.58
2022-12-03T18:30:24.968Z,83.70
2022-12-03T18:32:51.598Z,83.28
2022-12-03T18:35:18.326Z,82.77
2022-12-03T18:37:44.989Z,83.22
2022-12-03T18:40:24.088Z,82.84
2022-12-03T18:42:50.907Z,83.21
2022-12-03T18:45:17.671Z,83.23
2022-12-03T18:47:44.541Z,83.61
2022-12-03T18:50:11.577Z,84.20
2022-12-03T18:52:38.338Z,84.94
2022-12-03T18:55:05.654Z,84.81
2022-12-03T18:57:32.809Z,85.02
2022-12-03T18:59:59.522Z,84.92
2022-12-03T19:02:54.347Z,85.16
2022-12-03T19:05:12.938Z,84.39
2022-12-03T19:07:39.706Z,84.58
2022-12-03T19:10:07.050Z,84.55
2022-12-03T19:12:33.795Z,83.81
2022-12-03T19:15:00.461Z,84.69
2022-12-03T19:17:27.526Z,85.70
2022-12-03T19:19:54.828Z,85.40
2022-12-03T19:22:21.989Z,85.60
2022-12-03T19:24:48.660Z,85.58
2022-12-03T19:27:15.274Z,84.23
2022-12-03T19:29:41.941Z,84.34
2022-12-03T19:32:09.061Z,84.07
2022-12-03T19:34:35.869Z,83.88
2022-12-03T19:37:02.582Z,83.76
2022-12-03T19:39:29.317Z,83.93
2022-12-03T19:41:55.959Z,84.38
2022-12-03T19:44:22.586Z,84.30
2022-12-03T19:46:49.561Z,84.00
2022-12-03T19:49:21.076Z,83.56
2022-12-03T19:51:47.719Z,83.35
2022-12-03T19:54:14.398Z,84.10
2022-12-03T19:56:41.079Z,84.39
2022-12-03T19:59:08.034Z,84.32
2022-12-03T20:01:35.610Z,84.69
2022-12-03T20:04:02.868Z,84.62
2022-12-03T20:06:30.975Z,83.75
2022-12-03T20:08:58.644Z,84.64
2022-12-03T20:11:27.152Z,84.56
2022-12-03T20:13:55.285Z,84.49
2022-12-03T20:16:22.158Z,84.12
2022-12-03T20:18:49.206Z,84.79
2022-12-03T20:21:16.832Z,85.29
2022-12-03T20:23:43.544Z,86.41
2022-12-03T20:26:12.409Z,86.19
2022-12-03T20:28:39.184Z,86.73
2022-12-03T20:31:10.676Z,85.64
2022-12-03T20:33:43.099Z,85.51
2022-12-03T20:36:10.231Z,85.51
2022-12-03T20:38:37.226Z,85.92
2022-12-03T20:41:05.119Z,85.57
2022-12-03T20:43:31.832Z,86.10
2022-12-03T20:46:12.761Z,86.12
2022-12-03T20:48:39.992Z,85.91
2022-12-03T20:51:07.819Z,86.11
2022-12-03T20:53:34.777Z,86.50
2022-12-03T20:56:01.625Z,86.59
2022-12-03T20:58:28.875Z,86.47
2022-12-03T21:00:55.753Z,86.04
2022-12-03T21:03:22.512Z,86.37
2022-12-03T21:05:49.556Z,86.48
2022-12-03T21:08:27.935Z,86.13
2022-12-03T21:11:06.111Z,86.03
2022-12-03T21:13:32.878Z,85.97
2022-12-03T21:16:04.682Z,85.04
2022-12-03T21:18:31.485Z,85.23
2022-12-03T21:20:59.385Z,85.51
2022-12-03T21:23:26.161Z,85.82
2022-12-03T21:25:52.774Z,86.23
2022-12-03T21:28:19.504Z,86.05
2022-12-03T21:30:46.299Z,85.49
2022-12-03T21:33:12.930Z,85.67
2022-12-03T21:35:39.727Z,85.91
2022-12-03T21:38:06.356Z,85.73
2022-12-03T21:40:33.067Z,85.69
2022-12-03T21:42:59.772Z,85.88
2022-12-03T21:45:26.435Z,85.75
2022-12-03T21:47:53.201Z,85.22
2022-12-03T21:50:20.346Z,84.70
2022-12-03T21:52:46.987Z,85.24
2022-12-03T21:55:13.692Z,84.91
2022-12-03T21:57:40.419Z,84.51
2022-12-03T22:00:07.894Z,84.53
2022-12-03T22:02:34.778Z,84.07
2022-12-03T22:05:01.546Z,85.21
2022-12-03T22:07:28.230Z,85.59
2022-12-03T22:09:55.097Z,84.85
2022-12-03T22:12:22.032Z,84.33
2022-12-03T22:14:48.709Z,84.89
2022-12-03T22:17:15.397Z,84.65
2022-12-03T22:19:42.348Z,84.79
2022-12-03T22:22:08.947Z,84.98
2022-12-03T22:24:35.659Z,85.12
2022-12-03T22:27:04.053Z,84.68
2022-12-03T22:29:31.129Z,84.29
2022-12-03T22:31:57.702Z,84.76
2022-12-03T22:34:24.507Z,84.75
2022-12-03T22:36:51.194Z,85.00
2022-12-03T22:39:17.933Z,85.24
2022-12-03T22:41:44.661Z,85.69
2022-12-03T22:44:11.479Z,85.87
2022-12-03T22:46:38.210Z,85.53
2022-12-03T22:49:07.451Z,85.52
2022-12-03T22:51:34.406Z,85.92
2022-12-03T22:54:01.318Z,85.85
2022-12-03T22:56:28.780Z,86.34
2022-12-03T22:58:55.473Z,86.04
2022-12-03T23:01:29.955Z,85.87
2022-12-03T23:03:56.803Z,85.28
2022-12-03T23:06:23.596Z,84.67
2022-12-03T23:08:50.536Z,84.98
2022-12-03T23:11:17.308Z,85.69
2022-12-03T23:13:43.936Z,85.99
2022-12-03T23:16:18.823Z,86.62
2022-12-03T23:18:45.610Z,86.06
2022-12-03T23:21:28.978Z,86.25
2022-12-03T23:23:56.607Z,86.01
2022-12-03T23:26:23.267Z,86.86
2022-12-03T23:28:50.246Z,86.49
2022-12-03T23:31:20.747Z,85.85
2022-12-03T23:33:47.431Z,86.86
2022-12-03T23:36:14.138Z,86.34
2022-12-03T23:38:40.841Z,85.93
2022-12-03T23:41:08.721Z,86.12
2022-12-03T23:43:35.460Z,86.43
2022-12-03T23:46:03.952Z,86.28
2022-12-03T23:48:30.865Z,86.24
2022-12-03T23:50:57.594Z,86.00
2022-12-03T23:53:24.306Z,86.14
2022-12-03T23:55:50.906Z,86.13
2022-12-03T23:58:17.645Z,86.13
